Time;durP1;ratioP1;P1;durP2;ratioP2;P2;SDS_P1;SDS_P2;PMS_P1;PMS_P2;Temp;Humidity;BMP_temperature;BMP_pressure;BME280_temperature;BME280_humidity;BME280_pressure;Samples;Min_cycle;Max_cycle;Signal;HPM_P1;HPM_P2
2023/07/09 00:01:41;;;;;;;;;;;20.10;98.40;;;;;;5072053;28;19964;-69
2023/07/09 00:04:11;;;;;;;;;;;20.00;97.80;;;;;;5071808;28;19991;-69
2023/07/09 00:06:39;;;;;;;;;;;20.30;96.10;;;;;;5072288;28;19966;-69
2023/07/09 00:09:06;;;;;;;;;;;20.40;94.80;;;;;;5072564;28;20329;-68
2023/07/09 00:11:33;;;;;;;;;;;20.40;92.90;;;;;;5072164;28;25154;-69
2023/07/09 00:14:00;;;;;;;;;;;20.50;93.30;;;;;;5072069;28;25142;-70
2023/07/09 00:16:26;;;;;;;;;;;20.60;91.90;;;;;;5074643;28;20006;-68
2023/07/09 00:18:53;;;;;;;;;;;21.10;91.70;;;;;;5076503;28;25080;-68
2023/07/09 00:21:21;;;;;;;;;;;21.00;86.30;;;;;;5076444;28;20017;-68
2023/07/09 00:23:50;;;;;;;;;;;20.90;89.40;;;;;;5076413;28;20408;-67
2023/07/09 00:26:23;;;;;;;;;;;21.50;86.50;;;;;;5076456;28;25130;-67
2023/07/09 00:28:49;;;;;;;;;;;21.60;82.20;;;;;;5076140;28;20090;-68
2023/07/09 00:31:16;;;;;;;;;;;20.90;79.90;;;;;;5076030;28;20008;-68
2023/07/09 00:33:47;;;;;;;;;;;20.70;83.70;;;;;;5075946;28;25093;-68
2023/07/09 00:36:18;;;;;;;;;;;20.50;81.70;;;;;;5075829;28;19989;-70
2023/07/09 00:38:47;;;;;;;;;;;20.10;83.10;;;;;;5075551;28;20080;-69
2023/07/09 00:41:17;;;;;;;;;;;20.10;84.40;;;;;;5075224;28;20012;-68
2023/07/09 00:43:44;;;;;;;;;;;20.20;83.50;;;;;;5075662;28;25128;-68
2023/07/09 00:46:20;;;;;;;;;;;20.80;82.60;;;;;;5076016;28;25070;-69
2023/07/09 00:48:52;;;;;;;;;;;20.90;79.10;;;;;;5075918;28;25073;-68
2023/07/09 00:51:21;;;;;;;;;;;21.00;76.70;;;;;;5073867;28;25067;-67
2023/07/09 00:53:54;;;;;;;;;;;20.80;77.30;;;;;;5074102;28;19972;-68
2023/07/09 00:56:31;;;;;;;;;;;21.10;75.10;;;;;;5075013;28;20344;-67
2023/07/09 00:59:01;;;;;;;;;;;20.70;76.50;;;;;;5075106;28;19953;-67
2023/07/09 01:01:28;;;;;;;;;;;20.50;78.00;;;;;;5075480;28;20377;-67
2023/07/09 01:03:58;;;;;;;;;;;20.90;77.50;;;;;;5074726;28;25051;-67
2023/07/09 01:06:33;;;;;;;;;;;21.00;75.30;;;;;;5075681;28;19968;-68
2023/07/09 01:09:00;;;;;;;;;;;21.40;76.60;;;;;;5076064;28;19968;-68
2023/07/09 01:11:27;;;;;;;;;;;21.90;71.60;;;;;;5075255;28;20563;-68
2023/07/09 01:13:59;;;;;;;;;;;21.30;70.90;;;;;;5075651;28;20004;-68
2023/07/09 01:16:29;;;;;;;;;;;20.80;71.60;;;;;;5074757;28;25112;-68
2023/07/09 01:18:55;;;;;;;;;;;20.80;72.40;;;;;;5074587;28;19970;-68
2023/07/09 01:21:22;;;;;;;;;;;20.90;74.10;;;;;;5075356;28;20059;-68
2023/07/09 01:23:50;;;;;;;;;;;21.20;75.40;;;;;;5075645;28;25084;-69
2023/07/09 01:26:18;;;;;;;;;;;21.30;72.20;;;;;;5075623;28;25120;-67
2023/07/09 01:28:45;;;;;;;;;;;21.40;71.60;;;;;;5074084;28;20112;-67
2023/07/09 01:31:12;;;;;;;;;;;21.10;70.50;;;;;;5075210;28;20485;-67
2023/07/09 01:33:39;;;;;;;;;;;21.40;68.80;;;;;;5074670;28;20167;-67
2023/07/09 01:36:07;;;;;;;;;;;21.20;66.80;;;;;;5074593;28;20463;-68
2023/07/09 01:38:33;;;;;;;;;;;21.00;67.20;;;;;;5074423;28;20076;-67
2023/07/09 01:41:00;;;;;;;;;;;20.40;68.40;;;;;;5073313;28;19916;-69
2023/07/09 01:43:27;;;;;;;;;;;20.10;69.30;;;;;;5074231;28;25118;-68
2023/07/09 01:45:57;;;;;;;;;;;20.20;73.30;;;;;;5074304;28;20477;-67
2023/07/09 01:48:24;;;;;;;;;;;20.70;73.00;;;;;;5074433;28;20331;-67
2023/07/09 01:50:51;;;;;;;;;;;20.60;68.10;;;;;;5074346;28;25067;-67
2023/07/09 01:53:20;;;;;;;;;;;20.80;68.10;;;;;;5073806;28;25073;-68
2023/07/09 01:55:46;;;;;;;;;;;20.80;68.90;;;;;;5074389;28;20009;-67
2023/07/09 01:58:14;;;;;;;;;;;20.90;69.20;;;;;;5074327;28;25153;-70
2023/07/09 02:00:41;;;;;;;;;;;21.40;70.00;;;;;;5074169;28;20090;-68
2023/07/09 02:03:08;;;;;;;;;;;21.40;66.40;;;;;;5074969;28;20025;-68
2023/07/09 02:05:35;;;;;;;;;;;21.40;66.40;;;;;;5073836;28;19994;-67
2023/07/09 02:08:03;;;;;;;;;;;21.50;66.80;;;;;;5073980;28;25071;-68
2023/07/09 02:10:29;;;;;;;;;;;21.50;63.40;;;;;;5073485;28;19974;-68
2023/07/09 02:12:56;;;;;;;;;;;21.10;66.40;;;;;;5073599;28;25166;-68
2023/07/09 02:15:23;;;;;;;;;;;21.10;65.00;;;;;;5073647;28;20678;-70
2023/07/09 02:17:52;;;;;;;;;;;21.00;63.90;;;;;;5074215;28;19904;-68
2023/07/09 02:20:19;;;;;;;;;;;21.00;63.90;;;;;;5073668;28;25120;-68
2023/07/09 02:22:46;;;;;;;2.57;1.00;;;21.20;64.70;;;;;;5073870;28;20236;-68
2023/07/09 02:25:13;;;;;;;;;;;20.90;64.30;;;;;;5073603;28;20035;-68
2023/07/09 02:27:40;;;;;;;2.35;1.10;;;20.80;65.80;;;;;;5073651;28;25141;-68
2023/07/09 02:30:08;;;;;;;3.17;1.10;;;21.20;67.00;;;;;;5074340;28;20151;-68
2023/07/09 02:32:35;;;;;;;;;;;21.30;67.70;;;;;;5073505;28;20066;-69
2023/07/09 02:35:04;;;;;;;3.57;1.20;;;21.20;65.20;;;;;;5073301;28;20017;-68
2023/07/09 02:37:32;;;;;;;2.77;0.90;;;21.30;63.50;;;;;;5074233;28;20172;-68
2023/07/09 02:43:21;;;;;;;;;;;21.50;62.70;;;;;;5073030;28;20109;-69
2023/07/09 02:45:48;;;;;;;;;;;22.20;60.30;;;;;;5073786;28;20103;-69
2023/07/09 02:48:14;;;;;;;;;;;22.10;59.00;;;;;;5073521;28;20391;-70
2023/07/09 02:50:41;;;;;;;;;;;21.70;60.90;;;;;;5073557;28;19964;-68
2023/07/09 02:53:08;;;;;;;;;;;21.90;59.30;;;;;;5073170;28;25093;-68
2023/07/09 02:55:34;;;;;;;;;;;21.90;60.20;;;;;;5073409;28;20002;-68
2023/07/09 02:58:01;;;;;;;;;;;21.90;59.50;;;;;;5073461;28;25067;-69
2023/07/09 03:00:28;;;;;;;;;;;21.70;57.70;;;;;;5072752;28;20364;-69
2023/07/09 03:02:55;;;;;;;;;;;21.70;59.20;;;;;;5073573;28;19993;-69
2023/07/09 03:05:21;;;;;;;;;;;21.70;59.30;;;;;;5073043;28;25067;-68
2023/07/09 03:07:48;;;;;;;;;;;21.70;58.80;;;;;;5072848;28;20013;-68
2023/07/09 03:10:15;;;;;;;;;;;21.20;60.40;;;;;;5072753;28;20002;-69
2023/07/09 03:12:41;;;;;;;;;;;21.20;60.40;;;;;;5072931;28;20138;-67
2023/07/09 03:15:08;;;;;;;;;;;20.90;60.90;;;;;;5072528;28;20282;-67
2023/07/09 03:17:35;;;;;;;;;;;20.90;60.60;;;;;;5072421;28;25067;-67
2023/07/09 03:20:02;;;;;;;;;;;20.70;63.00;;;;;;5072305;28;19998;-67
2023/07/09 03:22:28;;;;;;;;;;;20.80;62.20;;;;;;5072654;28;20005;-67
2023/07/09 03:24:55;;;;;;;;;;;21.20;62.50;;;;;;5072541;28;25126;-67
2023/07/09 03:27:22;;;;;;;;;;;21.20;62.50;;;;;;5071430;28;25067;-68
2023/07/09 03:29:48;;;;;;;;;;;21.30;61.00;;;;;;5072763;28;19979;-68
2023/07/09 03:32:15;;;;;;;;;;;21.30;62.20;;;;;;5072279;28;25110;-68
2023/07/09 03:34:42;;;;;;;;;;;21.00;61.30;;;;;;5070866;28;20018;-67
2023/07/09 03:37:08;;;;;;;;;;;20.90;63.60;;;;;;5072650;28;20472;-67
2023/07/09 03:39:35;;;;;;;;;;;21.30;62.30;;;;;;5073127;28;19995;-68
2023/07/09 03:42:02;;;;;;;;;;;21.20;63.20;;;;;;5072694;28;20018;-68
2023/07/09 03:44:28;;;;;;;;;;;21.20;64.40;;;;;;5073129;28;19972;-68
2023/07/09 03:46:55;;;;;;;;;;;21.50;61.40;;;;;;5072736;28;20198;-68
2023/07/09 03:49:22;;;;;;;;;;;21.60;62.70;;;;;;5072701;28;20018;-68
2023/07/09 03:51:48;;;;;;;;;;;21.50;61.00;;;;;;5071859;28;25052;-68
2023/07/09 03:54:15;;;;;;;;;;;21.30;61.30;;;;;;5072701;28;25129;-68
2023/07/09 03:56:42;;;;;;;;;;;21.70;62.20;;;;;;5071603;28;25054;-68
2023/07/09 03:59:08;;;;;;;;;;;21.80;61.30;;;;;;5072752;28;20430;-68
2023/07/09 04:01:35;;;;;;;;;;;21.70;60.20;;;;;;5072765;28;25087;-68
2023/07/09 04:04:02;;;;;;;;;;;21.50;62.10;;;;;;5071789;28;19997;-68
2023/07/09 04:06:29;;;;;;;;;;;21.00;61.40;;;;;;5071926;28;19956;-69
2023/07/09 04:08:56;;;;;;;;;;;20.90;63.10;;;;;;5072313;28;20443;-68
2023/07/09 04:11:22;;;;;;;;;;;20.90;63.70;;;;;;5071799;28;20396;-68
2023/07/09 04:13:49;;;;;;;;;;;21.10;65.40;;;;;;5072398;28;20507;-67
2023/07/09 04:16:16;;;;;;;;;;;21.20;64.60;;;;;;5072195;28;20007;-68
2023/07/09 04:18:42;;;;;;;;;;;21.10;65.00;;;;;;5072127;28;20385;-69
2023/07/09 04:21:09;;;;;;;;;;;21.00;65.90;;;;;;5072165;28;19968;-67
2023/07/09 04:23:36;;;;;;;;;;;20.90;65.30;;;;;;5071794;28;20006;-68
2023/07/09 04:26:03;;;;;;;;;;;20.90;66.90;;;;;;5070661;28;25069;-67
2023/07/09 04:28:31;;;;;;;;;;;20.50;66.60;;;;;;5071780;28;25065;-68
2023/07/09 04:30:57;;;;;;;;;;;20.50;67.80;;;;;;5072032;28;25124;-68
2023/07/09 04:33:24;;;;;;;;;;;20.50;68.30;;;;;;5071525;28;20046;-67
2023/07/09 04:35:51;;;;;;;;;;;20.40;70.10;;;;;;5071945;28;19959;-68
2023/07/09 04:38:18;;;;;;;;;;;20.40;71.10;;;;;;5072226;28;19957;-67
2023/07/09 04:40:44;;;;;;;;;;;20.20;71.60;;;;;;5072311;28;24137;-68
2023/07/09 04:43:11;;;;;;;;;;;20.10;70.90;;;;;;5071687;28;20508;-68
2023/07/09 04:45:38;;;;;;;;;;;20.10;73.50;;;;;;5072009;28;20074;-68
2023/07/09 04:48:05;;;;;;;;;;;20.10;74.10;;;;;;5071270;28;25122;-68
2023/07/09 04:50:32;;;;;;;;;;;20.20;74.70;;;;;;5071966;28;19962;-68
2023/07/09 04:52:59;;;;;;;;;;;20.40;74.40;;;;;;5071287;28;19970;-68
2023/07/09 04:55:26;;;;;;;;;;;20.30;76.30;;;;;;5073005;28;19964;-68
2023/07/09 04:57:53;;;;;;;;;;;20.60;76.10;;;;;;5071785;28;20546;-68
2023/07/09 05:00:20;;;;;;;;;;;20.60;73.40;;;;;;5072126;28;20410;-68
2023/07/09 05:02:47;;;;;;;;;;;20.20;74.00;;;;;;5056250;28;19991;-68
2023/07/09 05:05:14;;;;;;;;;;;20.00;75.90;;;;;;5075009;28;25070;-67
2023/07/09 05:07:41;;;;;;;;;;;20.20;76.70;;;;;;5075152;28;20002;-67
2023/07/09 05:10:08;;;;;;;;;;;20.00;76.10;;;;;;5073535;28;25057;-68
2023/07/09 05:12:35;;;;;;;;;;;20.30;76.60;;;;;;5075488;28;20447;-67
2023/07/09 05:15:02;;;;;;;;;;;20.30;76.10;;;;;;5075062;28;25082;-67
2023/07/09 05:17:28;;;;;;;;;;;20.00;76.30;;;;;;5074531;28;19956;-67
2023/07/09 05:19:55;;;;;;;;;;;19.80;79.10;;;;;;5074821;28;19964;-67
2023/07/09 05:22:22;;;;;;;;;;;19.80;81.90;;;;;;5074978;28;25103;-68
2023/07/09 05:24:49;;;;;;;2.90;0.70;;;19.90;81.10;;;;;;5074568;28;25065;-68
2023/07/09 05:27:16;;;;;;;;;;;19.60;81.10;;;;;;5074789;28;20049;-69
2023/07/09 05:29:42;;;;;;;;;;;19.40;84.00;;;;;;5074828;28;25077;-68
2023/07/09 05:32:10;;;;;;;2.10;0.90;;;19.20;83.50;;;;;;5074940;28;19911;-69
2023/07/09 05:34:37;;;;;;;1.63;0.80;;;18.90;85.40;;;;;;5075405;28;20682;-69
2023/07/09 05:37:04;;;;;;;2.17;0.77;;;18.70;90.20;;;;;;5075369;28;20267;-69
2023/07/09 05:39:32;;;;;;;0.77;0.57;;;18.50;91.40;;;;;;5075109;28;20176;-69
2023/07/09 05:41:59;;;;;;;1.43;0.73;;;18.60;91.80;;;;;;5074047;28;20173;-69
2023/07/09 05:44:26;;;;;;;;;;;18.50;92.20;;;;;;5074603;28;20119;-69
2023/07/09 05:46:52;;;;;;;;;;;18.30;93.10;;;;;;5074467;28;19904;-69
2023/07/09 05:49:19;;;;;;;;;;;18.00;94.10;;;;;;5074228;28;19927;-69
2023/07/09 05:51:46;;;;;;;;;;;17.90;95.70;;;;;;5074768;28;19948;-69
2023/07/09 05:54:13;;;;;;;;;;;17.90;96.80;;;;;;5074578;28;24096;-69
2023/07/09 05:56:39;;;;;;;;;;;17.80;98.10;;;;;;5074517;28;20044;-69
2023/07/09 05:59:06;;;;;;;;;;;17.80;99.10;;;;;;5074594;28;20272;-68
2023/07/09 06:01:33;;;;;;;;;;;17.80;99.90;;;;;;5074085;28;20338;-68
2023/07/09 06:03:59;;;;;;;;;;;17.80;99.90;;;;;;5074352;28;24139;-68
2023/07/09 06:06:26;;;;;;;;;;;17.80;99.90;;;;;;5074157;28;24050;-68
2023/07/09 06:08:53;;;;;;;;;;;17.70;99.90;;;;;;5074180;28;19904;-68
2023/07/09 06:11:20;;;;;;;;;;;17.60;99.90;;;;;;5074100;28;19904;-68
2023/07/09 06:13:48;;;;;;;;;;;17.60;99.90;;;;;;5073464;28;25112;-69
2023/07/09 06:16:15;;;;;;;;;;;17.50;99.90;;;;;;5074055;28;20338;-69
2023/07/09 06:18:41;;;;;;;;;;;17.60;99.90;;;;;;5073815;28;20375;-70
2023/07/09 06:21:11;;;;;;;;;;;17.50;99.90;;;;;;5074113;28;19958;-70
2023/07/09 06:23:37;;;;;;;;;;;17.40;99.90;;;;;;5073501;28;19920;-69
2023/07/09 06:26:04;;;;;;;;;;;17.30;99.90;;;;;;5073284;28;19904;-68
2023/07/09 06:28:31;;;;;;;;;;;17.30;99.90;;;;;;5073895;28;24105;-70
2023/07/09 06:30:58;;;;;;;;;;;17.20;99.90;;;;;;5073277;28;19904;-71
2023/07/09 06:33:25;;;;;;;;;;;17.10;99.90;;;;;;5073746;28;24130;-70
2023/07/09 06:35:54;;;;;;;;;;;17.10;99.90;;;;;;5073386;28;19911;-69
2023/07/09 06:38:21;;;;;;;;;;;17.10;99.90;;;;;;5073909;28;20240;-68
2023/07/09 06:40:47;;;;;;;;;;;17.00;99.90;;;;;;5073580;28;25110;-69
2023/07/09 06:43:14;;;;;;;;;;;17.00;99.90;;;;;;5073482;28;25059;-68
2023/07/09 06:45:54;;;;;;;;;;;16.90;99.90;;;;;;5073635;28;19904;-67
2023/07/09 06:48:21;;;;;;;;;;;16.80;99.90;;;;;;5073102;28;24069;-69
2023/07/09 06:50:48;;;;;;;;;;;16.80;99.90;;;;;;5073015;28;19950;-69
2023/07/09 06:53:16;;;;;;;;;;;16.70;99.90;;;;;;5071631;28;20350;-69
2023/07/09 06:55:42;;;;;;;;;;;16.60;99.90;;;;;;5073239;28;19905;-69
2023/07/09 06:58:09;;;;;;;;;;;16.60;99.90;;;;;;5073820;28;19911;-69
2023/07/09 07:00:36;;;;;;;;;;;16.60;99.90;;;;;;5073095;28;24152;-69
2023/07/09 07:03:03;;;;;;;;;;;16.50;99.90;;;;;;5072500;28;20119;-69
2023/07/09 07:05:31;;;;;;;;;;;16.50;99.90;;;;;;5073197;28;19951;-69
2023/07/09 07:07:58;;;;;;;;;;;16.40;99.90;;;;;;5073045;28;24146;-69
2023/07/09 07:10:26;;;;;;;;;;;16.30;99.90;;;;;;5073078;28;19904;-67
2023/07/09 07:12:54;;;;;;;;;;;16.10;99.90;;;;;;5072611;28;20365;-68
2023/07/09 07:15:20;;;;;;;;;;;16.10;99.90;;;;;;5072823;28;20453;-67
2023/07/09 07:17:47;;;;;;;;;;;16.10;99.90;;;;;;5072517;28;19904;-67
2023/07/09 07:20:14;;;;;;;;;;;16.00;99.90;;;;;;5072886;28;24140;-67
2023/07/09 07:22:41;;;;;;;;;;;15.80;99.90;;;;;;5072053;28;25082;-67
2023/07/09 07:25:08;;;;;;;;;;;15.70;99.90;;;;;;5071984;28;19909;-69
2023/07/09 07:27:36;;;;;;;;;;;15.60;99.90;;;;;;5072673;28;19905;-69
2023/07/09 07:30:03;;;;;;;;;;;15.50;99.90;;;;;;5072518;28;25137;-69
2023/07/09 07:32:29;;;;;;;;;;;15.40;99.90;;;;;;5072643;28;19947;-68
2023/07/09 07:34:56;;;;;;;;;;;15.40;99.90;;;;;;5072863;28;20022;-68
2023/07/09 07:37:23;;;;;;;;;;;15.30;99.90;;;;;;5072300;28;24057;-68
2023/07/09 07:39:50;;;;;;;;;;;15.20;99.90;;;;;;5072822;28;19908;-68
2023/07/09 07:42:17;;;;;;;;;;;15.10;99.90;;;;;;5072763;28;20022;-69
2023/07/09 07:44:43;;;;;;;;;;;15.00;99.90;;;;;;5072287;28;19904;-68
2023/07/09 07:47:11;;;;;;;;;;;14.90;99.90;;;;;;5072911;28;19958;-68
2023/07/09 07:49:39;;;;;;;;;;;14.80;99.90;;;;;;5072346;28;19911;-68
2023/07/09 07:52:06;;;;;;;;;;;14.70;99.90;;;;;;5072648;28;19908;-68
2023/07/09 07:54:32;;;;;;;;;;;14.60;99.90;;;;;;5072394;28;19911;-68
2023/07/09 07:56:59;;;;;;;;;;;14.70;99.90;;;;;;5072393;28;20289;-68
2023/07/09 07:59:26;;;;;;;;;;;14.80;99.90;;;;;;5072738;28;19999;-66
2023/07/09 08:01:53;;;;;;;;;;;14.80;99.90;;;;;;5072272;28;25122;-67
2023/07/09 08:04:20;;;;;;;;;;;14.70;99.90;;;;;;5072205;28;19912;-68
2023/07/09 08:06:47;;;;;;;;;;;14.50;99.90;;;;;;5072625;28;24077;-67
2023/07/09 08:09:13;;;;;;;;;;;14.30;99.90;;;;;;5072372;28;19943;-68
2023/07/09 08:11:40;;;;;;;;;;;14.10;99.90;;;;;;5072355;28;24076;-68
2023/07/09 08:14:07;;;;;;;;;;;14.20;99.90;;;;;;5072500;28;19904;-69
2023/07/09 08:16:33;;;;;;;;;;;14.20;99.90;;;;;;5072531;28;20006;-69
2023/07/09 08:19:00;;;;;;;;;;;14.00;99.90;;;;;;5071988;28;19908;-69
2023/07/09 08:21:27;;;;;;;;;;;13.80;99.90;;;;;;5071905;28;19957;-68
2023/07/09 08:23:53;;;;;;;;;;;13.70;99.90;;;;;;5072346;28;19912;-68
2023/07/09 08:26:20;;;;;;;;;;;13.50;99.90;;;;;;5072444;28;19904;-68
2023/07/09 08:28:47;;;;;;;;;;;13.30;99.90;;;;;;5072536;28;24061;-68
2023/07/09 08:31:14;;;;;;;;;;;13.20;99.90;;;;;;5072041;28;20030;-68
2023/07/09 08:33:41;;;;;;;;;;;13.00;99.90;;;;;;5072074;28;20326;-67
2023/07/09 08:36:08;;;;;;;;;;;13.10;99.90;;;;;;5072025;28;19918;-68
2023/07/09 08:38:34;;;;;;;;;;;13.10;99.90;;;;;;5075782;28;19904;-68
2023/07/09 08:41:02;;;;;;;;;;;13.20;99.90;;;;;;5075896;28;19913;-67
2023/07/09 08:43:29;;;;;;;;;;;13.20;99.90;;;;;;5076378;28;24077;-67
2023/07/09 08:46:15;;;;;;;;;;;13.20;99.90;;;;;;5076385;28;19957;-68
2023/07/09 08:48:45;;;;;;;;;;;13.20;99.90;;;;;;5074101;28;19912;-68
2023/07/09 08:51:15;;;;;;;;;;;13.20;99.90;;;;;;5074308;28;19908;-67
2023/07/09 08:53:49;;;;;;;;;;;13.30;99.90;;;;;;5075922;28;20407;-68
2023/07/09 08:56:16;;;;;;;;;;;13.30;99.90;;;;;;5075817;28;24102;-68
2023/07/09 08:58:44;;;;;;;;;;;13.30;99.90;;;;;;5075709;28;19904;-67
2023/07/09 09:01:21;;;;;;;;;;;13.30;99.90;;;;;;5075138;28;19905;-69
2023/07/09 09:04:13;;;;;;;;;;;13.30;99.90;;;;;;5075437;28;19912;-68
2023/07/09 09:06:43;;;;;;;;;;;13.30;99.90;;;;;;5074574;28;19911;-68
2023/07/09 09:09:22;;;;;;;;;;;13.30;99.90;;;;;;5074181;28;20065;-69
2023/07/09 09:11:53;;;;;;;;;;;13.20;99.90;;;;;;5075234;28;19912;-68
2023/07/09 09:14:26;;;;;;;;;;;13.10;99.90;;;;;;5075136;28;19912;-68
2023/07/09 09:16:54;;;;;;;;;;;13.00;99.90;;;;;;5075471;28;19987;-68
2023/07/09 09:19:28;;;;;;;;;;;13.00;99.90;;;;;;5075520;28;19905;-67
2023/07/09 09:21:58;;;;;;;;;;;12.90;99.90;;;;;;5074886;28;24070;-68
2023/07/09 09:24:47;;;;;;;;;;;12.80;99.90;;;;;;5074859;28;20342;-67
2023/07/09 09:27:14;;;;;;;;;;;12.70;99.90;;;;;;5064790;28;19979;-68
2023/07/09 09:29:41;;;;;;;;;;;12.60;99.90;;;;;;5074947;28;20272;-68
2023/07/09 09:32:27;;;;;;;;;;;12.40;99.90;;;;;;5073361;28;19915;-68
2023/07/09 09:34:55;;;;;;;;;;;12.30;99.90;;;;;;5075453;28;19904;-71
2023/07/09 09:37:27;;;;;;;;;;;12.10;99.90;;;;;;5074982;28;24068;-69
2023/07/09 09:39:54;;;;;;;;;;;12.00;99.90;;;;;;5074995;28;24079;-67
2023/07/09 09:42:23;;;;;;;;;;;11.80;99.90;;;;;;5074831;28;24073;-68
2023/07/09 09:44:50;;;;;;;;;;;11.70;99.90;;;;;;5073835;28;19905;-68
2023/07/09 09:47:17;;;;;;;;;;;11.60;99.90;;;;;;5074981;28;19988;-67
2023/07/09 09:49:44;;;;;;;;;;;11.50;99.90;;;;;;5073837;28;19904;-68
2023/07/09 09:52:15;;;;;;;;;;;11.40;99.90;;;;;;5074928;28;19943;-68
2023/07/09 09:54:54;;;;;;;;;;;11.40;99.90;;;;;;5074682;28;20017;-67
2023/07/09 09:57:25;;;;;;;;;;;11.30;99.90;;;;;;5074946;28;19904;-67
2023/07/09 09:59:54;;;;;;;;;;;11.40;99.90;;;;;;5074830;28;24086;-68
2023/07/09 10:02:25;;;;;;;;;;;11.40;99.90;;;;;;5074393;28;25112;-67
2023/07/09 10:04:52;;;;;;;;;;;11.20;99.90;;;;;;5074737;28;19905;-67
2023/07/09 10:07:19;;;;;;;;;;;11.20;99.90;;;;;;5073772;28;19904;-68
2023/07/09 10:09:54;;;;;;;;;;;11.10;99.90;;;;;;5075127;28;24063;-68
2023/07/09 10:12:30;;;;;;;;;;;11.20;99.90;;;;;;5074539;28;20419;-68
2023/07/09 10:15:01;;;;;;;;;;;11.30;99.90;;;;;;5074654;28;24094;-69
2023/07/09 10:17:37;;;;;;;;;;;11.30;99.90;;;;;;5074329;28;24056;-67
2023/07/09 10:20:09;;;;;;;;;;;11.10;99.90;;;;;;5074301;28;19905;-68
2023/07/09 10:22:48;;;;;;;;;;;11.00;99.90;;;;;;5074058;28;24111;-67
2023/07/09 10:25:24;;;;;;;;;;;10.90;99.90;;;;;;5074119;28;19994;-68
2023/07/09 10:27:54;;;;;;;;;;;10.90;99.90;;;;;;5074013;28;20005;-67
2023/07/09 10:30:24;;;;;;;;;;;10.80;99.90;;;;;;5074388;28;19908;-66
2023/07/09 10:33:00;;;;;;;;;;;10.90;99.90;;;;;;5072594;28;25145;-68
2023/07/09 10:35:38;;;;;;;;;;;10.80;99.90;;;;;;5074090;28;20362;-67
2023/07/09 10:38:12;;;;;;;;;;;10.70;99.90;;;;;;5072970;28;20312;-67
2023/07/09 10:40:45;;;;;;;;;;;10.60;99.90;;;;;;5074145;28;24074;-67
2023/07/09 10:43:18;;;;;;;;;;;10.60;99.90;;;;;;5073450;28;25124;-68
2023/07/09 10:45:48;;;;;;;;;;;10.50;99.90;;;;;;5074446;28;19919;-67
2023/07/09 10:48:15;;;;;;;;;;;10.50;99.90;;;;;;5073749;28;24073;-67
2023/07/09 10:50:42;;;;;;;;;;;10.40;99.90;;;;;;5074546;28;19909;-68
2023/07/09 10:53:23;;;;;;;;;;;10.30;99.90;;;;;;5073457;28;19986;-67
2023/07/09 10:55:58;;;;;;;;;;;10.20;99.90;;;;;;5074047;28;20319;-68
2023/07/09 10:58:28;;;;;;;;;;;10.10;99.90;;;;;;5072247;28;24057;-67
2023/07/09 11:00:55;;;;;;;;;;;10.10;99.90;;;;;;5073650;28;19979;-67
2023/07/09 11:03:22;;;;;;;;;;;10.10;99.90;;;;;;5073507;28;19916;-67
2023/07/09 11:05:49;;;;;;;;;;;10.10;99.90;;;;;;5073372;28;25118;-68
2023/07/09 11:08:19;;;;;;;;;;;10.00;99.90;;;;;;5073568;28;19905;-68
2023/07/09 11:10:57;;;;;;;;;;;10.00;99.90;;;;;;5073587;28;19948;-68
2023/07/09 11:13:26;;;;;;;;;;;10.00;99.90;;;;;;5073506;28;24060;-68
2023/07/09 11:15:56;;;;;;;;;;;9.90;99.90;;;;;;5073692;28;19995;-68
2023/07/09 11:18:24;;;;;;;;;;;9.90;99.90;;;;;;5073298;28;19905;-68
2023/07/09 11:21:20;;;;;;;;;;;9.80;99.90;;;;;;5073273;28;24125;-70
2023/07/09 11:23:47;;;;;;;;;;;9.70;99.90;;;;;;5063458;28;19916;-69
2023/07/09 11:26:21;;;;;;;;;;;9.60;99.90;;;;;;5073512;28;19904;-69
2023/07/09 11:29:07;;;;;;;;;;;9.60;99.90;;;;;;5073372;28;24070;-68
2023/07/09 11:31:38;;;;;;;;;;;9.50;99.90;;;;;;5073139;28;24123;-69
2023/07/09 11:34:08;;;;;;;;;;;9.50;99.90;;;;;;5073474;28;20262;-69
2023/07/09 11:36:45;;;;;;;;;;;9.50;99.90;;;;;;5073770;28;24085;-68
2023/07/09 11:39:27;;;;;;;;;;;9.50;99.90;;;;;;5073228;28;19904;-68
2023/07/09 11:41:54;;;;;;;;;;;9.50;99.90;;;;;;5072975;28;19987;-69
2023/07/09 11:44:24;;;;;;;;;;;9.50;99.90;;;;;;5073220;28;19959;-69
2023/07/09 11:47:12;;;;;;;;;;;9.50;99.90;;;;;;5073807;28;24069;-68
2023/07/09 11:49:48;;;;;;;;;;;9.40;99.90;;;;;;5072300;28;19988;-69
2023/07/09 11:52:15;;;;;;;;;;;9.40;99.90;;;;;;5073663;28;24064;-68
2023/07/09 11:54:42;;;;;;;;;;;9.30;99.90;;;;;;5073312;28;19912;-69
2023/07/09 11:57:13;;;;;;;;;;;9.30;99.90;;;;;;5073187;28;19928;-67
2023/07/09 11:59:43;;;;;;;;;;;9.20;99.90;;;;;;5072889;28;19905;-68
2023/07/09 12:02:15;;;;;;;;;;;9.20;99.90;;;;;;5073154;28;20273;-68
2023/07/09 12:04:42;;;;;;;;;;;9.20;99.90;;;;;;5073031;28;24222;-67
2023/07/09 12:07:13;;;;;;;;;;;9.20;99.90;;;;;;5073287;28;24060;-68
2023/07/09 12:09:42;;;;;;;;;;;9.30;99.90;;;;;;5071830;28;19912;-69
2023/07/09 12:12:18;;;;;;;;;;;9.30;99.90;;;;;;5073676;28;20239;-68
2023/07/09 12:14:45;;;;;;;;;;;9.30;99.90;;;;;;5077072;28;19904;-68
2023/07/09 12:17:12;;;;;;;;;;;9.20;99.90;;;;;;5077110;28;24074;-69
2023/07/09 12:19:39;;;;;;;;;;;9.20;99.90;;;;;;5075740;28;19912;-69
2023/07/09 12:22:10;;;;;;;;;;;9.10;99.90;;;;;;5076707;28;20408;-68
2023/07/09 12:24:40;;;;;;;;;;;9.10;99.90;;;;;;5076771;28;19912;-68
2023/07/09 12:27:26;;;;;;;;;;;9.10;99.90;;;;;;5077055;28;20042;-67
2023/07/09 12:29:54;;;;;;;;;;;9.00;99.90;;;;;;5076848;28;19904;-68
2023/07/09 12:32:26;;;;;;;;;;;9.00;99.90;;;;;;5076753;28;24110;-68
2023/07/09 12:34:54;;;;;;;;;;;8.90;99.90;;;;;;5076706;28;24064;-70
2023/07/09 12:37:24;;;;;;;;;;;8.80;99.90;;;;;;5076861;28;24070;-68
2023/07/09 12:39:52;;;;;;;;;;;8.70;99.90;;;;;;5076755;28;19904;-68
2023/07/09 12:42:30;;;;;;;;;;;8.70;99.90;;;;;;5076653;28;24061;-68
2023/07/09 12:44:57;;;;;;;;;;;8.60;99.90;;;;;;5076611;28;24143;-69
2023/07/09 12:47:25;;;;;;;;;;;8.50;99.90;;;;;;5076519;28;19978;-68
2023/07/09 12:50:00;;;;;;;;;;;8.50;99.90;;;;;;5075269;28;19994;-68
2023/07/09 12:52:27;;;;;;;;;;;8.50;99.90;;;;;;5075031;28;20316;-69
2023/07/09 12:54:58;;;;;;;;;;;8.50;99.90;;;;;;5075089;28;20445;-68
2023/07/09 12:57:25;;;;;;;;;;;8.40;99.90;;;;;;5076277;28;24052;-68
2023/07/09 12:59:54;;;;;;;;;;;8.40;99.90;;;;;;5075427;28;19904;-70
2023/07/09 13:02:22;;;;;;;;;;;8.40;99.90;;;;;;5076214;28;19904;-68
2023/07/09 13:04:50;;;;;;;;;;;8.40;99.90;;;;;;5076150;28;19912;-68
2023/07/09 13:07:37;;;;;;;;;;;8.30;99.90;;;;;;5076138;28;19904;-68
2023/07/09 13:10:07;;;;;;;;;;;8.30;99.90;;;;;;5075955;28;24140;-68
2023/07/09 13:12:34;;;;;;;;;;;8.20;99.90;;;;;;5076110;28;19911;-68
2023/07/09 13:15:02;;;;;;;;;;;8.20;99.90;;;;;;5075818;28;24061;-68
2023/07/09 13:17:30;;;;;;;;;;;8.20;99.90;;;;;;5075920;28;19919;-68
2023/07/09 13:19:58;;;;;;;;;;;8.20;99.90;;;;;;5076029;28;20269;-67
2023/07/09 13:22:25;;;;;;;;;;;8.20;99.90;;;;;;5075468;28;19924;-69
2023/07/09 13:24:55;;;;;;;;;;;8.20;99.90;;;;;;5076001;28;19912;-67
2023/07/09 13:27:23;;;;;;;;;;;8.30;99.90;;;;;;5076243;28;19905;-68
2023/07/09 13:29:50;;;;;;;;;;;8.20;99.90;;;;;;5075896;28;20270;-69
2023/07/09 13:32:17;;;;;;;;;;;8.10;99.90;;;;;;5075559;28;24048;-67
2023/07/09 13:34:44;;;;;;;;;;;8.10;99.90;;;;;;5075740;28;19904;-68
2023/07/09 13:37:15;;;;;;;;;;;8.20;99.90;;;;;;5075504;28;25135;-69
2023/07/09 13:39:42;;;;;;;;;;;8.20;99.90;;;;;;5076128;28;19916;-68
2023/07/09 13:42:11;;;;;;;;;;;8.10;99.90;;;;;;5074287;28;24075;-67
2023/07/09 13:44:39;;;;;;;;;;;8.00;99.90;;;;;;5075294;28;20476;-68
2023/07/09 13:47:09;;;;;;;;;;;8.00;99.90;;;;;;5075570;28;24077;-67
2023/07/09 13:49:36;;;;;;;;;;;8.00;99.90;;;;;;5075113;28;19904;-68
2023/07/09 13:52:05;;;;;;;;;;;7.90;99.90;;;;;;5075735;28;19908;-70
2023/07/09 13:54:37;;;;;;;;;;;7.90;99.90;;;;;;5075372;28;19905;-67
2023/07/09 13:57:06;;;;;;;;;;;7.80;99.90;;;;;;5075271;28;20247;-67
2023/07/09 13:59:33;;;;;;;;;;;7.70;99.90;;;;;;5073810;28;19905;-67
2023/07/09 14:02:11;;;;;;;;;;;7.70;99.90;;;;;;5075129;28;19911;-67
2023/07/09 14:04:38;;;;;;;;;;;7.60;99.90;;;;;;5075176;28;19912;-67
2023/07/09 14:07:05;;;;;;;;;;;7.60;99.90;;;;;;5075407;28;19904;-67
2023/07/09 14:09:31;;;;;;;;;;;7.60;99.90;;;;;;5075121;28;19908;-67
2023/07/09 14:11:58;;;;;;;;;;;7.60;99.90;;;;;;5075504;28;19950;-68
2023/07/09 14:14:31;;;;;;;;;;;7.50;99.90;;;;;;5075160;28;20276;-67
2023/07/09 14:16:59;;;;;;;;;;;7.50;99.90;;;;;;5074820;28;24146;-67
2023/07/09 14:19:29;;;;;;;;;;;7.70;99.90;;;;;;5074993;28;19904;-68
2023/07/09 14:21:55;;;;;;;;;;;7.70;99.90;;;;;;5074569;28;20366;-67
2023/07/09 14:24:26;;;;;;;;;;;7.70;99.90;;;;;;5074625;28;20342;-67
2023/07/09 14:26:54;;;;;;;;;;;7.70;99.90;;;;;;5074657;28;19911;-67
2023/07/09 14:29:21;;;;;;;;;;;7.60;99.90;;;;;;5074581;28;24135;-67